createdAt,value
2023-05-15T01:56:50.121Z,3.78
2023-05-15T01:59:22.736Z,2.97
2023-05-15T02:18:14.277Z,4.68
2023-05-15T02:20:43.944Z,2.30
2023-05-15T02:23:13.769Z,3.28
2023-05-15T02:40:42.594Z,2.88
2023-05-15T02:43:13.297Z,5.70
2023-05-15T02:45:44.534Z,4.53
2023-05-15T02:48:14.916Z,4.35
2023-05-15T02:50:45.691Z,2.45
2023-05-15T02:53:19.062Z,4.28
2023-05-15T02:55:50.028Z,4.30
2023-05-15T02:58:20.605Z,3.22
2023-05-15T03:00:50.720Z,5.45
2023-05-15T03:03:20.913Z,3.67
2023-05-15T03:05:50.577Z,3.53
2023-05-15T03:08:21.632Z,3.60
2023-05-15T03:10:52.437Z,4.00
2023-05-15T03:13:22.695Z,4.72
2023-05-15T03:15:54.057Z,3.17
2023-05-15T03:18:24.447Z,3.80
2023-05-15T03:20:56.516Z,5.28
2023-05-15T03:23:26.426Z,5.70
2023-05-15T03:25:56.347Z,3.75
2023-05-15T03:28:26.780Z,6.50
2023-05-15T03:30:57.171Z,4.78
2023-05-15T03:33:27.852Z,4.53
2023-05-15T03:35:57.795Z,3.63
2023-05-15T03:38:46.693Z,5.30
2023-05-15T03:41:21.119Z,4.60
2023-05-15T03:43:50.955Z,4.05
2023-05-15T03:46:21.425Z,3.60
2023-05-15T03:48:51.652Z,4.00
2023-05-15T03:54:10.530Z,3.13
2023-05-15T03:56:40.859Z,4.07
2023-05-15T03:59:11.693Z,4.68
2023-05-15T04:01:54.694Z,5.05
2023-05-15T04:04:31.878Z,4.05
2023-05-15T04:07:02.915Z,5.53
2023-05-15T04:09:32.693Z,4.18
2023-05-15T04:12:04.278Z,6.00
2023-05-15T04:14:35.060Z,5.05
2023-05-15T04:17:05.023Z,5.90
2023-05-15T04:19:35.245Z,6.30
2023-05-15T04:22:05.517Z,4.60
2023-05-15T04:24:37.936Z,3.90
2023-05-15T04:27:09.060Z,4.65
2023-05-15T04:29:39.712Z,5.00
2023-05-15T04:32:10.280Z,5.25
2023-05-15T04:34:40.951Z,5.47
2023-05-15T04:37:10.790Z,5.85
2023-05-15T04:39:41.556Z,4.03
2023-05-15T04:42:11.892Z,3.33
2023-05-15T04:44:41.637Z,4.27
2023-05-15T04:47:11.289Z,3.10
2023-05-15T04:49:43.397Z,4.00
2023-05-15T04:52:13.723Z,5.55
2023-05-15T04:54:45.175Z,5.80
2023-05-15T04:57:17.881Z,7.55
2023-05-15T04:59:49.020Z,3.20
2023-05-15T05:02:22.507Z,4.15
2023-05-15T05:04:52.763Z,4.60
2023-05-15T05:07:23.105Z,5.32
2023-05-15T05:09:53.159Z,2.50
2023-05-15T05:12:28.061Z,4.30
2023-05-15T05:14:59.082Z,2.88
2023-05-15T05:17:29.911Z,4.88
2023-05-15T05:20:00.290Z,4.03
2023-05-15T05:22:35.009Z,4.03
2023-05-15T05:27:48.039Z,4.20
2023-05-15T05:30:18.515Z,4.47
2023-05-15T05:32:48.646Z,6.75
2023-05-15T05:35:18.840Z,6.07
2023-05-15T05:37:59.562Z,6.90
2023-05-15T05:40:29.552Z,5.90
2023-05-15T05:43:06.112Z,3.67
2023-05-15T05:45:36.065Z,3.53
2023-05-15T05:48:06.433Z,6.03
2023-05-15T05:50:36.354Z,4.53
2023-05-15T05:53:06.755Z,4.07
2023-05-15T05:55:37.070Z,4.50
2023-05-15T05:58:14.805Z,6.30
2023-05-15T06:00:55.099Z,6.00
2023-05-15T06:03:26.328Z,3.63
2023-05-15T06:05:56.202Z,5.22
2023-05-15T06:08:26.838Z,4.82
2023-05-15T06:10:58.169Z,4.35
2023-05-15T06:13:28.141Z,2.87
2023-05-15T06:15:58.524Z,4.82
2023-05-15T06:18:28.861Z,4.67
2023-05-15T06:21:01.953Z,4.63
2023-05-15T06:23:32.120Z,4.32
2023-05-15T06:26:03.090Z,4.45
2023-05-15T06:28:33.525Z,3.77
2023-05-15T06:31:03.828Z,4.68
2023-05-15T06:33:34.472Z,5.38
2023-05-15T06:36:05.928Z,6.10
2023-05-15T06:38:36.139Z,6.18
2023-05-15T06:41:09.881Z,5.57
2023-05-15T06:43:40.356Z,5.70
2023-05-15T06:46:10.140Z,5.03
2023-05-15T06:48:40.077Z,5.50
2023-05-15T06:51:10.199Z,4.47
2023-05-15T06:53:49.502Z,5.20
2023-05-15T06:56:23.507Z,4.95
2023-05-15T06:59:14.814Z,4.90
2023-05-15T07:01:46.021Z,6.07
2023-05-15T07:04:16.245Z,6.10
2023-05-15T07:06:47.605Z,6.43
2023-05-15T07:09:17.416Z,5.43
2023-05-15T07:11:52.330Z,7.63
2023-05-15T07:14:23.507Z,5.27
2023-05-15T07:16:53.750Z,8.32
2023-05-15T07:19:23.628Z,6.97
2023-05-15T07:21:53.645Z,5.90
2023-05-15T07:24:24.731Z,5.75
2023-05-15T07:26:58.761Z,7.32
2023-05-15T07:29:34.470Z,6.15
2023-05-15T07:32:09.484Z,6.00
2023-05-15T07:34:41.653Z,4.90
2023-05-15T07:37:31.568Z,3.83
2023-05-15T07:40:01.990Z,4.30
2023-05-15T07:42:33.643Z,7.60
2023-05-15T07:45:05.544Z,7.07
2023-05-15T07:47:38.925Z,9.07
2023-05-15T07:50:25.876Z,7.00
2023-05-15T07:53:19.970Z,6.67
2023-05-15T07:56:07.861Z,8.50
2023-05-15T07:58:39.701Z,5.70
2023-05-15T08:01:13.670Z,7.97
2023-05-15T08:03:43.834Z,6.03
2023-05-15T08:06:15.504Z,3.95
2023-05-15T08:08:47.272Z,6.22
2023-05-15T08:11:25.318Z,4.55
2023-05-15T08:13:55.912Z,5.38
2023-05-15T08:16:28.964Z,6.85
2023-05-15T08:19:05.011Z,6.68
2023-05-15T08:21:37.001Z,7.53
2023-05-15T08:24:08.101Z,6.13
2023-05-15T08:26:38.542Z,6.93
2023-05-15T08:29:14.127Z,4.93
2023-05-15T08:31:47.687Z,5.18
2023-05-15T08:34:18.494Z,7.20
2023-05-15T08:36:50.782Z,7.85
2023-05-15T08:39:21.508Z,7.35
2023-05-15T08:42:06.594Z,8.07
2023-05-15T08:44:39.109Z,4.13
2023-05-15T08:47:15.786Z,6.50
2023-05-15T08:50:11.730Z,7.57
2023-05-15T08:52:48.303Z,7.90
2023-05-15T08:55:25.616Z,7.07
2023-05-15T08:57:57.463Z,12.52
2023-05-15T09:00:29.486Z,5.17
2023-05-15T09:03:03.985Z,5.53
2023-05-15T09:05:36.748Z,8.90
2023-05-15T09:08:11.214Z,7.22
2023-05-15T09:10:43.074Z,6.50
2023-05-15T09:13:17.927Z,7.03
2023-05-15T09:15:50.554Z,5.07
2023-05-15T09:18:22.186Z,9.00
2023-05-15T09:20:56.177Z,4.68
2023-05-15T09:23:31.047Z,7.43
2023-05-15T09:26:03.008Z,4.97
2023-05-15T09:28:37.539Z,9.13
2023-05-15T09:31:08.997Z,7.55
2023-05-15T09:33:43.917Z,10.10
2023-05-15T09:36:23.560Z,6.97
2023-05-15T09:39:02.942Z,8.13
2023-05-15T09:41:34.214Z,9.73
2023-05-15T09:44:04.987Z,7.45
2023-05-15T09:46:38.599Z,9.82
2023-05-15T09:49:11.970Z,7.82
2023-05-15T09:52:07.325Z,6.97
2023-05-15T09:54:40.165Z,9.52
2023-05-15T09:57:13.813Z,11.57
2023-05-15T09:59:55.249Z,8.63
2023-05-15T10:02:35.967Z,8.80
2023-05-15T10:05:07.843Z,10.95
2023-05-15T10:07:39.050Z,7.72
2023-05-15T10:10:10.045Z,7.45
2023-05-15T10:12:40.743Z,9.05
2023-05-15T10:15:12.475Z,9.23
2023-05-15T10:17:45.647Z,12.02
2023-05-15T10:20:17.470Z,13.18
2023-05-15T10:22:50.671Z,11.82
2023-05-15T10:25:58.606Z,7.63
2023-05-15T10:28:31.946Z,9.00
2023-05-15T10:31:05.501Z,8.32
2023-05-15T10:33:37.980Z,9.43
2023-05-15T10:36:10.272Z,13.05
2023-05-15T10:38:51.632Z,11.27
2023-05-15T10:41:25.470Z,7.30
2023-05-15T10:43:58.201Z,8.57
2023-05-15T10:46:30.134Z,10.83
2023-05-15T10:49:02.150Z,8.30
2023-05-15T10:51:37.532Z,9.35
2023-05-15T10:54:09.207Z,11.35
2023-05-15T10:56:42.216Z,7.20
2023-05-15T10:59:18.305Z,7.80
2023-05-15T11:04:38.567Z,7.33
2023-05-15T11:07:17.145Z,9.23
2023-05-15T11:09:48.387Z,7.68
2023-05-15T11:12:20.436Z,7.60
2023-05-15T11:14:57.388Z,5.65
2023-05-15T11:17:32.150Z,5.90
2023-05-15T11:20:03.045Z,7.40
2023-05-15T11:22:37.870Z,11.13
2023-05-15T11:25:14.992Z,9.27
2023-05-15T11:27:47.521Z,11.90
2023-05-15T11:30:27.313Z,10.73
2023-05-15T11:33:02.823Z,11.43
2023-05-15T11:35:44.074Z,9.95
2023-05-15T11:38:16.682Z,9.13
2023-05-15T11:40:54.643Z,10.77
2023-05-15T11:43:29.060Z,10.40
2023-05-15T11:46:12.622Z,9.13
2023-05-15T11:48:46.110Z,9.40
2023-05-15T11:51:26.846Z,14.43
2023-05-15T11:53:58.727Z,8.55
2023-05-15T11:56:30.586Z,9.52
2023-05-15T11:59:02.906Z,11.55
2023-05-15T12:01:48.740Z,15.57
2023-05-15T12:04:20.029Z,9.98
2023-05-15T12:06:51.153Z,8.45
2023-05-15T12:09:24.076Z,10.20
2023-05-15T12:11:55.396Z,11.30
2023-05-15T12:14:35.273Z,12.57
2023-05-15T12:17:05.782Z,9.73
2023-05-15T12:19:39.734Z,14.30
2023-05-15T12:22:09.845Z,7.43
2023-05-15T12:24:42.967Z,13.07
2023-05-15T12:27:13.435Z,9.50
2023-05-15T12:29:43.409Z,12.25
2023-05-15T12:32:14.595Z,12.98
2023-05-15T12:34:44.521Z,10.13
2023-05-15T12:37:15.456Z,11.90
2023-05-15T12:40:06.285Z,9.68
2023-05-15T12:42:47.485Z,12.35
2023-05-15T12:45:18.958Z,13.27
2023-05-15T12:47:51.126Z,13.82
2023-05-15T12:50:24.936Z,15.90
2023-05-15T12:52:56.633Z,8.13
2023-05-15T12:55:28.804Z,9.20
2023-05-15T13:00:50.449Z,11.05
2023-05-15T13:03:23.242Z,11.50
2023-05-15T13:05:54.001Z,8.25
2023-05-15T13:08:23.749Z,13.70
2023-05-15T13:11:00.478Z,11.77
2023-05-15T13:14:02.458Z,13.45
2023-05-15T13:16:32.474Z,11.43
2023-05-15T13:19:02.263Z,9.70
2023-05-15T13:21:32.548Z,16.92
2023-05-15T13:24:02.195Z,21.35
2023-05-15T13:26:31.932Z,22.73
2023-05-15T13:29:02.911Z,21.33
2023-05-15T13:31:33.512Z,20.73
2023-05-15T13:34:03.162Z,16.13
2023-05-15T13:36:32.793Z,14.05
2023-05-15T13:39:02.466Z,13.88
2023-05-15T13:41:32.190Z,12.83
2023-05-15T13:44:02.262Z,13.82
2023-05-15T13:46:32.025Z,12.37
2023-05-15T13:49:02.249Z,11.38
2023-05-15T13:51:31.802Z,10.05
2023-05-15T13:54:01.688Z,10.43
2023-05-15T13:56:31.305Z,12.63
2023-05-15T13:59:00.906Z,13.43
2023-05-15T14:01:30.565Z,12.07
2023-05-15T14:04:00.286Z,11.90
2023-05-15T14:06:29.943Z,11.52
2023-05-15T14:08:59.802Z,15.55
2023-05-15T14:11:29.363Z,11.90
2023-05-15T14:13:59.005Z,11.63
2023-05-15T14:16:28.938Z,13.65
2023-05-15T14:18:59.347Z,16.43
2023-05-15T14:21:29.606Z,14.85
2023-05-15T14:23:59.322Z,12.48
2023-05-15T14:26:29.322Z,11.83
2023-05-15T14:28:59.145Z,11.38
2023-05-15T14:31:28.774Z,13.65
2023-05-15T14:33:58.405Z,17.67
2023-05-15T14:36:28.021Z,13.15
2023-05-15T14:39:00.202Z,15.50
2023-05-15T14:41:30.584Z,13.50
2023-05-15T14:44:00.201Z,15.20
2023-05-15T14:46:30.803Z,10.68
